CDT,Max TemperatureF,Mean TemperatureF,Min TemperatureF,Max Dew PointF,MeanDew PointF,Min DewpointF,Max Humidity, Mean Humidity, Min Humidity, Max Sea Level PressureIn, Mean Sea Level PressureIn, Min Sea Level PressureIn, Max VisibilityMiles, Mean VisibilityMiles, Min VisibilityMiles, Max Wind SpeedMPH, Mean Wind SpeedMPH, Max Gust SpeedMPH,PrecipitationIn, CloudCover, Events, WindDirDegrees
2013-9-1,91,74,57,55,50,45,82,44,21,30.16,30.12,30.06,10,10,10,18,5,25,0.00,1,,44
2013-9-2,87,72,57,57,53,48,77,50,31,30.23,30.18,30.13,10,10,10,21,9,30,0.00,1,,32
2013-9-3,82,68,55,61,55,50,94,61,37,30.27,30.21,30.15,10,10,8,21,6,32,0.16,1,Thunderstorm,43
2013-9-4,87,71,55,57,52,46,88,52,25,30.30,30.25,30.20,10,10,10,21,9,28,0.00,2,,75
2013-9-5,84,72,60,59,55,52,82,54,35,30.32,30.27,30.22,10,10,9,16,6,20,0.05,4,Thunderstorm,81
2013-9-6,84,70,55,59,54,52,94,57,35,30.32,30.25,30.17,10,10,10,16,8,21,0.00,1,,81
2013-9-7,84,70,55,59,54,52,88,58,33,30.26,30.20,30.12,10,10,8,15,6,20,0.00,2,,76
2013-9-8,80,68,55,61,56,52,88,68,42,30.19,30.12,30.04,10,10,10,20,7,26,0.02,3,Thunderstorm,49
2013-9-9,80,68,55,63,59,54,100,83,47,30.13,30.09,30.06,10,10,2,18,7,28,2.01,4,Thunderstorm,61
2013-9-10,78,69,60,64,62,57,100,84,54,30.19,30.14,30.10,10,10,5,17,5,16,0.24,5,Thunderstorm,115
2013-9-11,78,70,62,64,63,61,100,81,57,30.23,30.18,30.13,10,10,10,16,8,21,0.02,5,,111
2013-9-12,77,70,62,63,60,57,94,76,53,30.23,30.18,30.12,10,10,10,15,9,18,0.00,5,,90
2013-9-13,80,68,57,59,55,52,94,65,37,30.18,30.12,30.04,10,10,10,16,7,21,0.00,2,,88
2013-9-14,78,66,53,55,52,46,94,61,38,30.13,30.09,30.04,10,10,10,15,6,20,0.00,2,,93
2013-9-15,82,68,53,59,55,52,94,63,35,30.21,30.14,30.10,10,10,10,17,7,22,0.00,1,,103
2013-9-16,78,68,57,61,57,54,94,69,47,30.27,30.22,30.17,10,10,10,14,7,18,0.00,5,,73
2013-9-17,77,70,62,61,59,57,94,76,50,30.24,30.20,30.13,10,10,8,16,9,23,0.00,8,,101
2013-9-18,78,68,59,63,60,57,100,78,47,30.19,30.12,30.05,10,10,10,17,7,22,0.00,7,,121
2013-9-19,73,68,62,63,62,57,100,91,69,30.12,30.08,30.04,10,10,8,17,6,21,0.20,8,,148
2013-9-20,73,66,59,63,60,55,100,87,64,30.19,30.10,30.04,10,10,8,21,8,26,0.13,6,,29
2013-9-21,73,65,55,55,54,50,94,78,46,30.23,30.16,30.09,10,10,10,9,5,,0.00,6,,52
2013-9-22,77,60,44,54,49,43,100,68,34,30.13,30.03,29.94,10,10,10,14,4,,0.00,0,,164
2013-9-23,82,66,50,55,49,45,88,60,26,30.11,30.01,29.95,10,10,10,20,6,26,0.00,0,,303
2013-9-24,82,64,46,45,39,36,82,46,20,30.23,30.15,30.11,10,10,8,12,6,,0.00,0,,1
2013-9-25,86,65,44,52,42,37,81,48,20,30.14,30.06,29.97,10,10,10,14,7,18,0.00,0,,157
2013-9-26,87,68,50,55,48,43,88,52,22,30.05,29.99,29.94,10,10,10,14,6,17,0.00,0,,158
2013-9-27,86,70,55,63,55,52,94,63,35,30.03,29.98,29.92,10,10,10,22,6,29,0.00,1,,178
2013-9-28,75,65,55,64,43,25,94,49,18,30.28,30.16,30.00,10,10,5,21,8,24,0.00,1,Thunderstorm,21
2013-9-29,78,62,46,48,42,37,87,55,23,30.29,30.22,30.15,10,10,10,15,8,25,0.00,0,,314
2013-9-30,84,62,39,41,34,28,87,45,13,30.17,30.10,30.03,10,10,10,20,6,24,0.00,0,,311